createdAt,value
2022-11-14T00:01:42.151Z,103.40
2022-11-14T00:04:03.008Z,124.00
2022-11-14T00:06:23.935Z,111.17
2022-11-14T00:08:45.056Z,108.10
2022-11-14T00:11:05.815Z,105.00
2022-11-14T00:13:26.347Z,101.27
2022-11-14T00:15:54.194Z,101.80
2022-11-14T00:18:14.885Z,94.67
2022-11-14T00:20:35.813Z,98.70
2022-11-14T00:22:56.305Z,102.23
2022-11-14T00:25:17.018Z,106.77
2022-11-14T00:27:37.647Z,95.83
2022-11-14T00:29:58.471Z,114.70
2022-11-14T00:32:21.284Z,112.77
2022-11-14T00:34:41.853Z,101.60
2022-11-14T00:37:02.469Z,114.77
2022-11-14T00:39:23.204Z,117.97
2022-11-14T00:41:43.846Z,112.87
2022-11-14T00:44:04.812Z,110.23
2022-11-14T00:46:25.207Z,116.13
2022-11-14T00:48:45.942Z,114.70
2022-11-14T00:51:06.883Z,102.10
2022-11-14T00:53:27.564Z,103.07
2022-11-14T00:55:48.063Z,106.20
2022-11-14T00:58:09.306Z,107.00
2022-11-14T01:00:30.074Z,104.90
2022-11-14T01:02:51.054Z,114.67
2022-11-14T01:05:11.768Z,113.50
2022-11-14T01:07:32.245Z,100.00
2022-11-14T01:09:52.955Z,112.57
2022-11-14T01:12:13.608Z,100.00
2022-11-14T01:14:34.319Z,101.37
2022-11-14T01:16:55.184Z,110.07
2022-11-14T01:19:15.960Z,110.27
2022-11-14T01:21:36.830Z,123.47
2022-11-14T01:23:57.664Z,122.90
2022-11-14T01:26:18.301Z,125.90
2022-11-14T01:28:40.005Z,132.60
2022-11-14T01:31:11.627Z,124.80
2022-11-14T01:33:31.926Z,135.63
2022-11-14T01:35:52.443Z,131.73
2022-11-14T01:38:14.919Z,133.40
2022-11-14T01:40:41.884Z,131.30
2022-11-14T01:43:11.766Z,123.73
2022-11-14T01:45:53.625Z,118.77
2022-11-14T01:48:28.912Z,148.20
2022-11-14T01:50:55.564Z,115.47
2022-11-14T01:53:16.332Z,118.90
2022-11-14T01:55:36.732Z,132.00
2022-11-14T01:57:58.053Z,131.80
2022-11-14T02:00:18.640Z,130.50
2022-11-14T02:02:39.406Z,143.57
2022-11-14T02:05:06.386Z,122.37
2022-11-14T02:07:29.257Z,122.00
2022-11-14T02:09:50.384Z,109.73
2022-11-14T02:12:14.186Z,130.47
2022-11-14T02:14:36.223Z,140.43
2022-11-14T02:17:27.458Z,135.97
2022-11-14T02:19:47.409Z,128.10
2022-11-14T02:22:07.942Z,128.07
2022-11-14T02:24:28.720Z,130.80
2022-11-14T02:26:50.451Z,134.43
2022-11-14T02:29:12.117Z,125.33
2022-11-14T02:31:33.146Z,140.20
2022-11-14T02:33:53.691Z,136.43
2022-11-14T02:36:14.510Z,141.73
2022-11-14T02:38:35.451Z,120.50
2022-11-14T02:40:56.064Z,142.23
2022-11-14T02:43:16.864Z,141.83
2022-11-14T02:45:37.628Z,123.60
2022-11-14T02:47:58.093Z,131.47
2022-11-14T02:50:19.641Z,149.27
2022-11-14T02:52:40.227Z,139.70
2022-11-14T02:55:00.944Z,142.83
2022-11-14T02:57:21.730Z,133.47
2022-11-14T02:59:42.527Z,137.10
2022-11-14T03:02:03.650Z,155.00
2022-11-14T03:04:24.186Z,143.57
2022-11-14T03:06:45.008Z,148.87
2022-11-14T03:09:05.886Z,162.07
2022-11-14T03:11:26.206Z,129.20
2022-11-14T03:13:46.794Z,128.63
2022-11-14T03:16:09.839Z,126.13
2022-11-14T03:18:30.989Z,143.10
2022-11-14T03:20:51.527Z,141.17
2022-11-14T03:23:12.371Z,134.23
2022-11-14T03:25:33.271Z,141.57
2022-11-14T03:27:53.740Z,134.10
2022-11-14T03:30:14.815Z,141.47
2022-11-14T03:32:35.261Z,139.10
2022-11-14T03:34:56.073Z,131.63
2022-11-14T03:37:16.599Z,144.47
2022-11-14T03:39:37.557Z,133.00
2022-11-14T03:41:58.108Z,133.07
2022-11-14T03:44:18.680Z,142.23
2022-11-14T03:46:39.183Z,132.37
2022-11-14T03:48:59.744Z,158.00
2022-11-14T03:51:20.562Z,118.90
2022-11-14T03:53:41.026Z,135.70
2022-11-14T03:56:01.869Z,123.13
2022-11-14T03:58:22.764Z,117.60
2022-11-14T04:00:43.397Z,131.60
2022-11-14T04:03:04.871Z,116.67
2022-11-14T04:05:25.795Z,132.30
2022-11-14T04:07:46.614Z,135.97
2022-11-14T04:10:07.898Z,129.70
2022-11-14T04:12:28.741Z,136.23
2022-11-14T04:14:49.454Z,149.33
2022-11-14T04:17:10.554Z,135.97
2022-11-14T04:19:31.042Z,124.57
2022-11-14T04:21:51.950Z,115.53
2022-11-14T04:24:12.769Z,115.93
2022-11-14T04:26:33.621Z,132.33
2022-11-14T04:28:54.111Z,118.97
2022-11-14T04:31:14.995Z,134.90
2022-11-14T04:33:35.502Z,117.77
2022-11-14T04:35:55.984Z,114.17
2022-11-14T04:38:17.077Z,123.77
2022-11-14T04:40:37.867Z,120.67
2022-11-14T04:42:58.600Z,112.80
2022-11-14T04:45:19.654Z,120.97
2022-11-14T04:47:42.287Z,113.70
2022-11-14T04:50:04.029Z,102.60
2022-11-14T04:52:24.947Z,109.93
2022-11-14T04:54:45.717Z,113.33
2022-11-14T04:57:06.607Z,104.13
2022-11-14T04:59:27.356Z,100.10
2022-11-14T05:01:48.275Z,98.20
2022-11-14T05:04:08.824Z,105.03
2022-11-14T05:06:29.567Z,102.20
2022-11-14T05:08:50.537Z,101.97
2022-11-14T05:11:19.339Z,94.90
2022-11-14T05:13:40.271Z,82.67
2022-11-14T05:16:01.550Z,96.43
2022-11-14T05:18:22.178Z,102.43
2022-11-14T05:20:43.402Z,89.40
2022-11-14T05:23:04.500Z,87.47
2022-11-14T05:25:25.120Z,84.13
2022-11-14T05:27:45.961Z,100.13
2022-11-14T05:30:07.351Z,95.53
2022-11-14T05:32:27.894Z,109.60
2022-11-14T05:34:48.614Z,100.23
2022-11-14T05:37:09.494Z,97.77
2022-11-14T05:39:30.681Z,89.07
2022-11-14T05:41:51.595Z,91.80
2022-11-14T05:44:12.409Z,89.73
2022-11-14T05:46:33.173Z,90.60
2022-11-14T05:48:54.048Z,82.43
2022-11-14T05:51:14.922Z,93.87
2022-11-14T05:53:35.843Z,90.23
2022-11-14T05:56:00.770Z,88.70
2022-11-14T05:58:22.012Z,102.43
2022-11-14T06:00:50.777Z,96.27
2022-11-14T06:03:15.095Z,91.27
2022-11-14T06:05:36.563Z,95.47
2022-11-14T06:07:58.508Z,84.27
2022-11-14T06:10:18.902Z,88.73
2022-11-14T06:12:40.206Z,89.10
2022-11-14T06:15:00.901Z,90.57
2022-11-14T06:17:21.664Z,91.10
2022-11-14T06:19:42.486Z,86.30
2022-11-14T06:22:03.200Z,83.37
2022-11-14T06:24:23.754Z,87.07
2022-11-14T06:26:44.512Z,73.70
2022-11-14T06:29:05.181Z,78.07
2022-11-14T06:31:26.500Z,72.87
2022-11-14T06:33:47.268Z,79.33
2022-11-14T06:36:08.917Z,68.83
2022-11-14T06:38:31.784Z,83.00
2022-11-14T06:40:52.993Z,76.17
2022-11-14T06:43:13.895Z,76.43
2022-11-14T06:45:34.484Z,73.10
2022-11-14T06:47:59.078Z,72.03
2022-11-14T06:50:19.596Z,68.37
2022-11-14T06:52:40.508Z,73.60
2022-11-14T06:55:01.340Z,74.27
2022-11-14T06:57:22.245Z,64.47
2022-11-14T06:59:43.104Z,70.03
2022-11-14T07:02:04.081Z,75.30
2022-11-14T07:04:24.680Z,78.93
2022-11-14T07:06:45.498Z,72.80
2022-11-14T07:09:06.665Z,68.53
2022-11-14T07:11:29.684Z,84.60
2022-11-14T07:13:54.682Z,76.40
2022-11-14T07:16:15.529Z,65.13
2022-11-14T07:18:36.011Z,73.67
2022-11-14T07:21:05.850Z,63.67
2022-11-14T07:23:27.274Z,68.73
2022-11-14T07:25:48.741Z,66.73
2022-11-14T07:28:09.495Z,76.07
2022-11-14T07:30:30.435Z,64.83
2022-11-14T07:32:58.244Z,62.80
2022-11-14T07:35:19.163Z,74.97
2022-11-14T07:37:39.641Z,76.60
2022-11-14T07:40:00.572Z,72.40
2022-11-14T07:42:21.648Z,76.43
2022-11-14T07:44:42.436Z,55.57
2022-11-14T07:47:03.589Z,51.87
2022-11-14T07:49:24.363Z,45.47
2022-11-14T07:51:45.263Z,49.53
2022-11-14T07:54:06.212Z,45.10
2022-11-14T07:56:27.134Z,41.43
2022-11-14T07:58:48.043Z,36.50
2022-11-14T08:01:11.804Z,37.07
2022-11-14T08:03:33.054Z,44.47
2022-11-14T08:06:05.298Z,39.00
2022-11-14T08:08:25.781Z,36.27
2022-11-14T08:10:46.909Z,33.50
2022-11-14T08:13:31.025Z,34.87
2022-11-14T08:15:48.690Z,37.37
2022-11-14T08:18:09.501Z,40.13
2022-11-14T08:20:30.225Z,33.53
2022-11-14T08:22:50.973Z,37.80
2022-11-14T08:25:11.725Z,33.97
2022-11-14T08:27:32.248Z,32.00
2022-11-14T08:29:53.007Z,31.30
2022-11-14T08:32:13.874Z,29.73
2022-11-14T08:34:34.748Z,29.53
2022-11-14T08:36:57.163Z,33.50
2022-11-14T08:39:18.122Z,29.50
2022-11-14T08:41:38.792Z,29.97
2022-11-14T08:43:59.533Z,28.83
2022-11-14T08:46:20.347Z,24.33
2022-11-14T08:48:40.883Z,25.73
2022-11-14T08:51:05.676Z,26.77
2022-11-14T08:53:26.529Z,27.23
2022-11-14T08:55:48.362Z,25.90
2022-11-14T08:58:09.052Z,25.10
2022-11-14T09:00:29.947Z,25.17
2022-11-14T09:02:50.886Z,28.20
2022-11-14T09:05:11.517Z,24.10
2022-11-14T09:07:32.721Z,22.37
2022-11-14T09:09:53.478Z,25.80
2022-11-14T09:12:14.629Z,25.13
2022-11-14T09:14:35.437Z,26.63
2022-11-14T09:16:56.240Z,26.30
2022-11-14T09:19:16.995Z,21.87
2022-11-14T09:21:37.715Z,28.13
2022-11-14T09:24:01.735Z,27.00
2022-11-14T09:26:22.893Z,26.67
2022-11-14T09:28:43.621Z,27.27
2022-11-14T09:31:06.791Z,25.97
2022-11-14T09:33:27.843Z,24.77
2022-11-14T09:35:48.665Z,23.93
2022-11-14T09:38:11.301Z,22.53
2022-11-14T09:40:41.701Z,21.27
2022-11-14T09:43:40.812Z,23.40
2022-11-14T09:46:01.690Z,22.90
2022-11-14T09:48:25.948Z,20.50
2022-11-14T09:50:53.950Z,22.07
2022-11-14T09:53:23.146Z,21.17
2022-11-14T09:55:43.769Z,23.20
2022-11-14T09:58:05.329Z,20.93
2022-11-14T10:00:29.457Z,20.50
2022-11-14T10:03:35.244Z,21.60
2022-11-14T10:05:55.683Z,21.00
2022-11-14T10:08:34.610Z,23.30
2022-11-14T10:10:58.857Z,21.67
2022-11-14T10:13:39.694Z,18.53
2022-11-14T10:16:19.952Z,22.73
2022-11-14T10:18:48.636Z,21.80
2022-11-14T10:21:28.051Z,20.70
2022-11-14T10:24:13.667Z,18.10
2022-11-14T10:26:38.580Z,17.73
2022-11-14T10:29:05.217Z,18.03
2022-11-14T10:31:26.180Z,16.63
2022-11-14T10:33:50.066Z,16.70
2022-11-14T10:36:34.851Z,18.23
2022-11-14T10:39:16.910Z,15.03
2022-11-14T10:44:22.847Z,14.90
2022-11-14T10:46:50.245Z,15.03
2022-11-14T10:49:20.823Z,14.43
2022-11-14T10:51:47.081Z,18.30
2022-11-14T10:54:15.822Z,16.93
2022-11-14T10:56:47.372Z,17.60
2022-11-14T10:59:09.136Z,13.77
2022-11-14T11:01:50.266Z,20.30
2022-11-14T11:04:21.062Z,18.57
2022-11-14T11:06:41.569Z,17.90
2022-11-14T11:09:26.798Z,18.80
2022-11-14T11:11:58.790Z,17.00
2022-11-14T11:14:19.875Z,17.47
2022-11-14T11:16:40.317Z,20.90
2022-11-14T11:19:15.623Z,17.80
2022-11-14T11:21:48.056Z,20.13
2022-11-14T11:24:09.318Z,20.27
2022-11-14T11:26:31.772Z,18.10
2022-11-14T11:29:10.424Z,19.13
2022-11-14T11:31:52.874Z,20.93
2022-11-14T11:34:13.661Z,18.87
2022-11-14T11:36:39.692Z,19.77
2022-11-14T11:39:00.218Z,20.03
2022-11-14T11:42:07.550Z,18.93
2022-11-14T11:44:12.676Z,18.93
2022-11-14T11:46:39.161Z,18.93
2022-11-14T11:49:05.920Z,22.40
2022-11-14T11:51:27.094Z,25.73
2022-11-14T11:54:09.294Z,18.70
2022-11-14T11:56:33.693Z,17.27
2022-11-14T11:59:15.073Z,19.43
2022-11-14T12:01:35.645Z,19.67
2022-11-14T12:03:56.270Z,20.97
2022-11-14T12:06:24.836Z,21.90
2022-11-14T12:09:07.320Z,19.30
2022-11-14T12:11:31.125Z,18.87
2022-11-14T12:14:36.189Z,18.67
2022-11-14T12:17:32.014Z,19.00
2022-11-14T12:19:55.355Z,24.73
2022-11-14T12:22:41.096Z,18.83
2022-11-14T12:25:20.156Z,19.50
2022-11-14T12:27:55.091Z,20.93
2022-11-14T12:30:23.877Z,18.73
2022-11-14T12:32:55.109Z,20.60
2022-11-14T12:35:20.948Z,20.47
2022-11-14T12:37:51.301Z,19.53
2022-11-14T12:40:25.957Z,20.37
2022-11-14T12:42:49.631Z,21.03
2022-11-14T12:45:41.110Z,21.00
2022-11-14T12:48:15.360Z,20.00
2022-11-14T12:50:41.595Z,20.07
2022-11-14T12:53:02.236Z,18.20
2022-11-14T12:55:26.206Z,18.67
2022-11-14T12:58:07.207Z,18.20
2022-11-14T13:00:28.385Z,20.80
2022-11-14T13:02:57.661Z,19.90
2022-11-14T13:05:40.671Z,19.97
2022-11-14T13:08:27.876Z,20.40
2022-11-14T13:10:48.274Z,20.20
2022-11-14T13:13:33.040Z,19.83
2022-11-14T13:16:13.093Z,20.40
2022-11-14T13:19:03.175Z,19.23
2022-11-14T13:21:45.889Z,20.80
2022-11-14T13:24:07.098Z,18.73
2022-11-14T13:26:27.538Z,18.83
2022-11-14T13:28:49.273Z,20.73
2022-11-14T13:31:16.221Z,18.97
2022-11-14T13:33:49.875Z,19.13
2022-11-14T13:36:34.925Z,18.80
2022-11-14T13:39:21.883Z,17.10
2022-11-14T13:41:51.777Z,19.63
2022-11-14T13:44:37.008Z,25.53
2022-11-14T13:47:04.304Z,19.90
2022-11-14T13:49:43.236Z,23.03
2022-11-14T13:52:05.291Z,19.63
2022-11-14T13:54:26.062Z,19.73
2022-11-14T13:57:05.375Z,20.53
2022-11-14T13:59:46.495Z,21.17
2022-11-14T14:02:16.109Z,19.63
2022-11-14T14:05:01.715Z,23.20
2022-11-14T14:07:28.094Z,21.90
2022-11-14T14:10:24.841Z,20.50
2022-11-14T14:13:00.831Z,22.10
2022-11-14T14:15:45.669Z,22.40
2022-11-14T14:18:12.094Z,21.27
2022-11-14T14:20:38.801Z,19.83
2022-11-14T14:23:02.731Z,21.07
2022-11-14T14:25:56.317Z,23.33
2022-11-14T14:28:38.661Z,22.20
2022-11-14T14:31:08.227Z,20.33
2022-11-14T14:33:31.644Z,20.73
2022-11-14T14:35:53.219Z,21.27
2022-11-14T14:38:25.777Z,22.03
2022-11-14T14:40:47.613Z,22.27
2022-11-14T14:43:43.144Z,24.10
2022-11-14T14:46:03.752Z,22.17
2022-11-14T14:48:30.314Z,25.07
2022-11-14T14:50:55.606Z,23.90
2022-11-14T14:53:28.692Z,22.37
2022-11-14T14:56:14.186Z,24.93
2022-11-14T14:58:35.865Z,24.10
2022-11-14T15:01:02.846Z,23.70
2022-11-14T15:03:24.842Z,22.80
2022-11-14T15:05:45.532Z,29.93
2022-11-14T15:08:06.566Z,29.13
2022-11-14T15:10:30.808Z,27.17
2022-11-14T15:12:53.113Z,26.07
2022-11-14T15:15:15.958Z,28.40
2022-11-14T15:17:37.034Z,30.47
2022-11-14T15:19:57.654Z,24.53
2022-11-14T15:22:18.103Z,30.00
2022-11-14T15:24:38.680Z,34.97
2022-11-14T15:27:04.148Z,27.83
2022-11-14T15:29:26.732Z,27.80
2022-11-14T15:31:56.438Z,29.40
2022-11-14T15:34:37.429Z,27.93
2022-11-14T15:37:10.124Z,30.83
2022-11-14T15:39:30.650Z,33.33
2022-11-14T15:42:19.966Z,31.90
2022-11-14T15:44:42.371Z,34.57
2022-11-14T15:47:03.890Z,31.87
2022-11-14T15:49:25.967Z,32.20
2022-11-14T15:51:58.030Z,29.63
2022-11-14T15:54:30.551Z,30.10
2022-11-14T15:56:51.823Z,29.50
2022-11-14T15:59:12.280Z,28.53
2022-11-14T16:01:33.017Z,32.17
2022-11-14T16:03:53.659Z,35.93
2022-11-14T16:06:14.345Z,26.90
2022-11-14T16:08:35.060Z,26.70
2022-11-14T16:10:55.623Z,30.07
2022-11-14T16:13:16.433Z,28.57
2022-11-14T16:15:37.015Z,28.67
2022-11-14T16:17:57.868Z,27.90
2022-11-14T16:20:23.924Z,31.37
2022-11-14T16:22:49.228Z,32.00
2022-11-14T16:25:18.848Z,33.30
2022-11-14T16:27:39.409Z,34.23
2022-11-14T16:30:00.136Z,31.37
2022-11-14T16:32:20.812Z,33.20
2022-11-14T16:34:41.453Z,31.73
2022-11-14T16:37:02.929Z,31.20
2022-11-14T16:39:23.260Z,31.03
2022-11-14T16:41:44.026Z,33.03
2022-11-14T16:44:04.870Z,32.13
2022-11-14T16:46:25.526Z,29.97
2022-11-14T16:48:46.187Z,28.10
2022-11-14T16:51:20.134Z,32.57
2022-11-14T16:53:47.746Z,30.23
2022-11-14T16:56:11.365Z,28.83
2022-11-14T16:58:32.007Z,27.60
2022-11-14T17:00:52.566Z,30.73
2022-11-14T17:03:13.754Z,30.40
2022-11-14T17:05:34.337Z,31.60
2022-11-14T17:07:56.904Z,29.00
2022-11-14T17:10:17.679Z,31.10
2022-11-14T17:12:38.538Z,30.73
2022-11-14T17:14:59.141Z,32.17
2022-11-14T17:17:19.741Z,30.90
2022-11-14T17:19:45.904Z,29.27
2022-11-14T17:22:06.617Z,30.57
2022-11-14T17:24:31.221Z,32.90
2022-11-14T17:26:52.138Z,27.67
2022-11-14T17:29:12.898Z,35.67
2022-11-14T17:31:37.606Z,30.60
2022-11-14T17:34:00.344Z,37.47
2022-11-14T17:36:22.388Z,33.83
2022-11-14T17:38:43.186Z,36.13
2022-11-14T17:41:07.290Z,31.83
2022-11-14T17:43:27.993Z,37.70
2022-11-14T17:45:56.208Z,40.33
2022-11-14T17:48:16.872Z,36.73
2022-11-14T17:50:40.648Z,36.90
2022-11-14T17:53:01.385Z,31.63
2022-11-14T17:55:22.049Z,34.37
2022-11-14T17:57:42.790Z,37.63
2022-11-14T18:00:04.964Z,32.27
2022-11-14T18:02:25.334Z,30.77
2022-11-14T18:04:47.080Z,32.87
2022-11-14T18:07:07.732Z,32.27
2022-11-14T18:09:29.470Z,29.13
2022-11-14T18:11:50.081Z,31.23
2022-11-14T18:14:12.046Z,33.80
2022-11-14T18:16:57.414Z,32.77
2022-11-14T18:19:12.679Z,32.93
2022-11-14T18:21:33.302Z,31.30
2022-11-14T18:23:56.371Z,33.40
2022-11-14T18:26:18.146Z,33.97
2022-11-14T18:28:38.939Z,30.90
2022-11-14T18:30:59.598Z,34.33
2022-11-14T18:33:20.281Z,30.73
2022-11-14T18:35:40.822Z,34.30
2022-11-14T18:38:01.626Z,30.13
2022-11-14T18:40:22.476Z,33.80
2022-11-14T18:42:43.172Z,32.23
2022-11-14T18:45:04.010Z,30.03
2022-11-14T18:47:24.415Z,33.83
2022-11-14T18:49:45.086Z,35.97
2022-11-14T18:52:12.717Z,35.93
2022-11-14T18:54:37.969Z,35.70
2022-11-14T18:56:58.524Z,39.37
2022-11-14T18:59:19.335Z,30.20
2022-11-14T19:01:40.021Z,31.80
2022-11-14T19:04:05.316Z,31.70
2022-11-14T19:06:26.886Z,36.57
2022-11-14T19:08:47.244Z,30.23
2022-11-14T19:11:32.789Z,35.27
2022-11-14T19:13:53.065Z,33.40
2022-11-14T19:16:13.506Z,33.70
2022-11-14T19:18:34.216Z,34.83
2022-11-14T19:21:03.792Z,34.57
2022-11-14T19:23:24.713Z,39.53
2022-11-14T19:25:45.283Z,35.40
2022-11-14T19:28:06.258Z,35.13
2022-11-14T19:30:27.060Z,35.80
2022-11-14T19:32:47.805Z,43.40
2022-11-14T19:35:09.494Z,48.70
2022-11-14T19:37:30.359Z,45.43
2022-11-14T19:39:55.310Z,39.13
2022-11-14T19:42:16.052Z,44.37
2022-11-14T19:44:36.497Z,42.43
2022-11-14T19:46:57.178Z,44.27
2022-11-14T19:49:17.872Z,39.30
2022-11-14T19:51:38.653Z,43.17
2022-11-14T19:54:01.027Z,45.13
2022-11-14T19:56:24.342Z,38.43
2022-11-14T19:58:48.049Z,37.17
2022-11-14T20:01:14.593Z,45.60
2022-11-14T20:03:35.837Z,51.47
2022-11-14T20:05:56.461Z,49.10
2022-11-14T20:08:17.093Z,45.47
2022-11-14T20:10:47.754Z,46.77
2022-11-14T20:13:08.777Z,44.27
2022-11-14T20:15:29.653Z,47.70
2022-11-14T20:17:50.422Z,44.20
2022-11-14T20:20:11.323Z,55.77
2022-11-14T20:22:32.121Z,50.03
2022-11-14T20:24:53.028Z,47.25
2022-11-14T20:27:13.506Z,54.27
2022-11-14T20:29:34.341Z,48.87
2022-11-14T20:31:55.098Z,47.23
2022-11-14T20:34:16.037Z,45.20
2022-11-14T20:37:08.863Z,42.90
2022-11-14T20:39:17.765Z,39.07
2022-11-14T20:41:38.441Z,32.90
2022-11-14T20:43:58.996Z,37.67
2022-11-14T20:46:21.708Z,35.10
2022-11-14T20:48:43.057Z,35.40
2022-11-14T20:51:17.621Z,35.87
2022-11-14T20:53:38.710Z,41.37
2022-11-14T20:56:00.111Z,35.27
2022-11-14T20:58:21.141Z,35.03
2022-11-14T21:00:41.693Z,40.47
2022-11-14T21:03:02.406Z,40.43
2022-11-14T21:05:23.788Z,38.73
2022-11-14T21:07:44.469Z,39.97
2022-11-14T21:10:24.230Z,38.83
2022-11-14T21:13:05.058Z,35.27
2022-11-14T21:15:25.479Z,37.80
2022-11-14T21:17:46.163Z,37.20
2022-11-14T21:20:08.068Z,35.33
2022-11-14T21:22:28.975Z,31.57
2022-11-14T21:24:49.721Z,31.27
2022-11-14T21:27:13.075Z,32.23
2022-11-14T21:29:33.766Z,35.83
2022-11-14T21:31:55.732Z,33.07
2022-11-14T21:34:18.027Z,35.73
2022-11-14T21:36:44.882Z,38.33
2022-11-14T21:39:06.566Z,34.80
2022-11-14T21:41:28.664Z,39.10
2022-11-14T21:43:53.521Z,36.17
2022-11-14T21:46:17.525Z,41.33
2022-11-14T21:48:41.479Z,40.37
2022-11-14T21:51:08.507Z,40.40
2022-11-14T21:53:29.523Z,37.80
2022-11-14T21:55:50.511Z,39.03
2022-11-14T21:58:12.874Z,41.13
2022-11-14T22:00:33.319Z,39.77
2022-11-14T22:03:16.293Z,38.70
2022-11-14T22:05:39.214Z,35.87
2022-11-14T22:08:00.044Z,40.10
2022-11-14T22:10:20.886Z,35.83
2022-11-14T22:12:41.618Z,38.93
2022-11-14T22:15:02.443Z,35.00
2022-11-14T22:17:23.152Z,39.63
2022-11-14T22:19:43.965Z,39.60
2022-11-14T22:22:04.761Z,37.03
2022-11-14T22:24:25.583Z,36.23
2022-11-14T22:26:46.400Z,42.57
2022-11-14T22:29:07.838Z,39.97
2022-11-14T22:31:28.479Z,38.30
2022-11-14T22:33:51.484Z,40.50
2022-11-14T22:36:18.950Z,44.33
2022-11-14T22:38:40.269Z,35.63
2022-11-14T22:41:01.957Z,32.80
2022-11-14T22:43:22.444Z,36.47
2022-11-14T22:45:43.268Z,34.90
2022-11-14T22:48:04.217Z,41.60
2022-11-14T22:50:24.922Z,47.37
2022-11-14T22:52:45.587Z,34.60
2022-11-14T22:55:06.743Z,40.87
2022-11-14T22:57:27.396Z,40.27
2022-11-14T22:59:48.204Z,38.27
2022-11-14T23:02:09.075Z,38.07
2022-11-14T23:04:30.252Z,37.60
2022-11-14T23:06:51.229Z,36.33
2022-11-14T23:09:12.028Z,42.23
2022-11-14T23:11:33.141Z,41.60
2022-11-14T23:13:55.791Z,37.30
2022-11-14T23:16:21.432Z,36.93
2022-11-14T23:18:42.414Z,37.70
2022-11-14T23:21:06.836Z,37.97
2022-11-14T23:23:27.910Z,37.43
2022-11-14T23:25:48.410Z,37.67
2022-11-14T23:28:08.928Z,35.20
2022-11-14T23:30:29.705Z,39.80
2022-11-14T23:32:50.445Z,37.17
2022-11-14T23:35:11.364Z,36.70
2022-11-14T23:37:32.167Z,33.27
2022-11-14T23:39:52.884Z,38.87
2022-11-14T23:42:13.930Z,37.57
2022-11-14T23:44:34.670Z,36.37
2022-11-14T23:46:55.404Z,39.30
2022-11-14T23:49:16.333Z,41.83
2022-11-14T23:51:37.314Z,41.17
2022-11-14T23:53:57.686Z,39.23
2022-11-14T23:56:18.219Z,35.70
2022-11-14T23:58:39.305Z,38.87
